Time;durP1;ratioP1;P1;durP2;ratioP2;P2;SDS_P1;SDS_P2;PMS_P1;PMS_P2;Temp;Humidity;BMP_temperature;BMP_pressure;BME280_temperature;BME280_humidity;BME280_pressure;Samples;Min_cycle;Max_cycle;Signal;HPM_P1;HPM_P2
2021/01/29 00:01:06;;;;;;;29.05;12.45;;;;;;;-1.96;78.28;99444.95;121667;1140;104435;-80
2021/01/29 00:03:41;;;;;;;27.60;13.87;;;;;;;-1.97;78.87;99441.50;121564;1141;104402;-79
2021/01/29 00:06:12;;;;;;;29.57;14.47;;;;;;;-1.99;79.20;99443.09;121694;1140;104338;-79
2021/01/29 00:08:41;;;;;;;28.33;14.53;;;;;;;-1.97;79.46;99433.79;121727;1141;104348;-79
2021/01/29 00:11:12;;;;;;;27.00;13.73;;;;;;;-1.94;78.59;99434.00;121657;1141;104462;-79
2021/01/29 00:13:40;;;;;;;30.70;15.07;;;;;;;-1.95;78.47;99437.34;121355;1141;104358;-80
2021/01/29 00:16:09;;;;;;;30.07;13.40;;;;;;;-1.96;78.43;99430.45;121718;1140;104439;-79
2021/01/29 00:18:39;;;;;;;28.57;13.97;;;;;;;-1.90;78.66;99432.52;121709;1141;104345;-79
2021/01/29 00:21:10;;;;;;;30.17;14.03;;;;;;;-1.92;78.81;99419.55;121712;1140;104372;-80
2021/01/29 00:23:42;;;;;;;;;;;;;;;-1.95;79.22;99426.18;121726;1140;104338;-78
2021/01/29 00:26:12;;;;;;;30.73;13.73;;;;;;;-1.96;79.30;99422.73;121712;1140;104345;-79
2021/01/29 00:28:43;;;;;;;28.97;14.03;;;;;;;-2.01;78.38;99416.36;121710;1140;104381;-78
2021/01/29 00:31:12;;;;;;;26.30;12.57;;;;;;;-2.04;79.08;99414.50;121414;1141;104475;-78
2021/01/29 00:33:41;;;;;;;28.90;13.87;;;;;;;-2.04;79.62;99405.87;121740;1141;104340;-79
2021/01/29 00:36:15;;;;;;;32.30;14.07;;;;;;;-2.00;78.69;99402.73;121707;1141;104344;-78
2021/01/29 00:38:46;;;;;;;28.83;14.23;;;;;;;-2.02;78.35;99410.34;121388;1141;104393;-79
2021/01/29 00:41:16;;;;;;;26.97;13.43;;;;;;;-2.01;78.70;99404.42;121737;1139;104450;-79
2021/01/29 00:43:46;;;;;;;27.33;13.47;;;;;;;-2.01;78.56;99400.94;121706;1141;104343;-79
2021/01/29 00:46:15;;;;;;;28.13;13.60;;;;;;;-2.00;79.53;99398.47;121711;1141;104375;-80
2021/01/29 00:48:45;;;;;;;32.07;14.20;;;;;;;-1.99;78.55;99396.81;121731;1139;104847;-79
2021/01/29 00:51:14;;;;;;;31.67;13.40;;;;;;;-2.01;79.25;99398.36;121678;1141;104436;-78
2021/01/29 00:53:47;;;;;;;32.20;13.63;;;;;;;-1.99;78.45;99394.24;121751;1140;104338;-79
2021/01/29 00:56:24;;;;;;;29.20;13.87;;;;;;;-1.95;78.70;99391.06;121715;1141;104458;-79
2021/01/29 00:59:03;;;;;;;30.20;14.40;;;;;;;-1.98;79.05;99396.00;121718;1141;104358;-79
2021/01/29 01:01:51;;;;;;;30.10;15.07;;;;;;;-2.10;78.14;99378.09;121751;1141;104404;-80
2021/01/29 01:04:20;;;;;;;28.27;13.60;;;;;;;-2.10;79.04;99379.75;121665;1141;104389;-79
2021/01/29 01:06:49;;;;;;;28.70;14.60;;;;;;;-2.07;78.22;99378.30;121755;1141;104401;-80
2021/01/29 01:09:38;;;;;;;34.07;15.53;;;;;;;-2.14;78.29;99368.37;121727;1140;104372;-80
2021/01/29 01:12:08;;;;;;;31.70;15.20;;;;;;;-2.18;79.27;99375.00;121744;1140;104346;-78
2021/01/29 01:14:58;;;;;;;30.37;15.07;;;;;;;-2.13;79.34;99371.86;121698;1140;104489;-79
2021/01/29 01:17:40;;;;;;;32.90;16.50;;;;;;;-2.10;78.75;99369.46;121723;1141;104338;-79
2021/01/29 01:20:21;;;;;;;30.17;15.33;;;;;;;-2.06;78.72;99368.89;121729;1141;104401;-80
2021/01/29 01:22:53;;;;;;;37.35;15.53;;;;;;;-2.05;79.66;99363.86;121742;1140;104361;-78
2021/01/29 01:25:27;;;;;;;31.97;15.20;;;;;;;-2.04;79.35;99364.73;121453;1141;104420;-79
2021/01/29 01:27:58;;;;;;;32.97;14.87;;;;;;;-2.06;78.08;99358.61;121722;1141;104343;-79
2021/01/29 01:30:41;;;;;;;32.73;15.07;;;;;;;-2.12;78.88;99360.77;121722;1141;104384;-80
2021/01/29 01:33:14;;;;;;;28.17;13.33;;;;;;;-2.09;79.43;99358.41;121780;1140;104333;-79
2021/01/29 01:35:56;;;;;;;29.40;14.03;;;;;;;-2.07;78.74;99362.88;121734;1141;104398;-80
2021/01/29 01:38:33;;;;;;;32.10;14.90;;;;;;;-2.04;78.89;99365.65;121723;1140;104346;-79
2021/01/29 01:41:03;;;;;;;32.17;14.93;;;;;;;-2.03;79.00;99356.25;121422;1141;104527;-78
2021/01/29 01:43:39;;;;;;;30.00;14.00;;;;;;;-2.06;79.07;99356.92;121399;1141;104486;-78
2021/01/29 01:46:30;;;;;;;28.20;13.50;;;;;;;-2.10;79.22;99352.39;121715;1141;104442;-78
2021/01/29 01:49:22;;;;;;;30.10;14.07;;;;;;;-2.11;78.56;99352.28;121679;1141;104471;-78
2021/01/29 01:52:10;;;;;;;29.87;13.77;;;;;;;-2.12;78.19;99353.97;121352;1141;104375;-78
2021/01/29 01:54:54;;;;;;;31.43;13.83;;;;;;;-2.12;78.29;99355.63;121625;1141;104404;-79
2021/01/29 01:57:25;;;;;;;33.37;15.57;;;;;;;-2.14;78.41;99350.39;121255;1141;104330;-78
2021/01/29 02:00:20;;;;;;;27.33;13.00;;;;;;;-2.14;78.19;99355.53;121348;1141;104425;-78
2021/01/29 02:03:17;;;;;;;30.63;14.50;;;;;;;-2.15;78.42;99351.20;121451;1141;104396;-78
2021/01/29 02:06:08;;;;;;;29.50;13.23;;;;;;;-2.18;78.63;99354.44;121659;1141;104465;-79
2021/01/29 02:08:47;;;;;;;30.50;14.37;;;;;;;-2.17;79.26;99347.61;121476;1141;104533;-81
2021/01/29 02:11:29;;;;;;;28.87;14.07;;;;;;;-2.11;79.19;99337.73;121727;1141;104431;-79
2021/01/29 02:14:11;;;;;;;29.70;14.33;;;;;;;-2.08;78.69;99342.20;121430;1141;104790;-78
2021/01/29 02:17:04;;;;;;;29.83;14.43;;;;;;;-2.02;78.77;99347.76;121751;1141;104879;-79
2021/01/29 02:20:29;;;;;;;30.43;14.83;;;;;;;-2.00;78.97;99343.60;121726;1141;104397;-78
2021/01/29 02:23:26;;;;;;;28.17;13.70;;;;;;;-2.02;78.66;99347.76;121518;1141;104485;-78
2021/01/29 02:26:41;;;;;;;26.57;12.57;;;;;;;-1.96;79.48;99342.11;121680;1141;104396;-78
2021/01/29 02:29:36;;;;;;;25.60;12.20;;;;;;;-1.96;79.46;99342.11;121708;1141;104337;-78
2021/01/29 02:32:39;;;;;;;31.77;14.40;;;;;;;-1.99;78.37;99329.97;121439;1141;104495;-78
2021/01/29 02:35:35;;;;;;;29.80;15.40;;;;;;;-1.96;78.88;99326.69;121714;1140;104345;-78
2021/01/29 02:38:38;;;;;;;35.50;15.33;;;;;;;-1.97;79.62;99325.80;121712;1141;104783;-78
2021/01/29 02:41:17;;;;;;;32.23;16.53;;;;;;;-2.01;78.67;99308.38;121685;1141;104329;-78
2021/01/29 02:44:06;;;;;;;34.20;15.90;;;;;;;-2.02;78.57;99315.22;121722;1141;104328;-79
2021/01/29 02:46:54;;;;;;;34.87;16.70;;;;;;;-2.00;78.67;99313.63;121727;1141;104342;-78
2021/01/29 02:49:56;;;;;;;32.97;15.67;;;;;;;-2.05;78.42;99311.56;121743;1141;104358;-79
2021/01/29 02:52:52;;;;;;;37.60;16.53;;;;;;;-2.14;78.45;99316.09;121750;1140;104466;-79
2021/01/29 02:55:53;;;;;;;33.47;15.63;;;;;;;-2.19;79.25;99313.22;121695;1141;104363;-79
2021/01/29 02:58:43;;;;;;;33.93;15.00;;;;;;;-2.21;79.02;99313.11;121756;1141;104343;-80
2021/01/29 03:01:39;;;;;;;37.03;15.80;;;;;;;-2.28;78.23;99307.45;121750;1141;104367;-79
2021/01/29 03:04:24;;;;;;;35.63;16.03;;;;;;;-2.25;79.84;99308.55;121713;1140;104385;-77
2021/01/29 03:07:03;;;;;;;36.30;17.13;;;;;;;-2.25;78.83;99308.55;121742;1141;104595;-80
2021/01/29 03:09:42;;;;;;;35.30;15.40;;;;;;;-2.25;78.65;99305.09;121443;1141;104535;-80
2021/01/29 03:12:35;;;;;;;32.50;16.57;;;;;;;-2.29;79.54;99306.58;121758;1141;104462;-77
2021/01/29 03:15:27;;;;;;;35.27;16.87;;;;;;;-2.22;78.92;99302.73;121756;1141;104449;-80
2021/01/29 03:18:21;;;;;;;33.00;16.43;;;;;;;-2.20;79.92;99302.05;121749;1140;104346;-80
2021/01/29 03:21:21;;;;;;;32.50;16.63;;;;;;;-2.14;79.89;99301.55;121671;1141;104352;-80
2021/01/29 03:24:20;;;;;;;37.40;17.20;;;;;;;-2.14;78.61;99303.23;121689;1141;104397;-78
2021/01/29 03:27:15;;;;;;;33.30;16.47;;;;;;;-2.13;78.61;99303.34;121698;1141;104410;-78
2021/01/29 03:30:05;;;;;;;35.90;16.17;;;;;;;-2.11;78.91;99303.45;121724;1141;104344;-78
2021/01/29 03:32:53;;;;;;;33.43;16.77;;;;;;;-2.07;78.55;99305.41;121763;1141;104396;-80
2021/01/29 03:35:44;;;;;;;34.37;16.10;;;;;;;-2.03;79.01;99304.83;121733;1141;104370;-79
2021/01/29 03:38:37;;;;;;;33.00;15.13;;;;;;;-2.05;78.37;99301.28;121663;1141;104514;-80
2021/01/29 03:41:23;;;;;;;30.77;14.43;;;;;;;-2.05;78.63;99303.85;121785;1140;104831;-80
2021/01/29 03:44:20;;;;;;;31.60;15.07;;;;;;;-2.03;78.85;99297.13;121804;1140;104350;-79
2021/01/29 03:47:03;;;;;;;34.17;15.83;;;;;;;-2.04;78.65;99291.10;121755;1141;104331;-80
2021/01/29 03:50:01;;;;;;;31.07;16.07;;;;;;;-1.99;79.24;99286.27;121750;1141;104457;-79
2021/01/29 03:53:06;;;;;;;33.90;15.90;;;;;;;-2.00;79.50;99276.76;121706;1140;104331;-79
2021/01/29 03:56:02;;;;;;;32.20;16.83;;;;;;;-2.00;78.86;99269.92;121707;1140;104342;-78
2021/01/29 03:59:00;;;;;;;34.03;15.37;;;;;;;-1.99;78.44;99260.55;121696;1140;104340;-79
2021/01/29 04:01:51;;;;;;;32.60;15.30;;;;;;;-1.99;79.08;99263.13;121751;1141;104892;-79
2021/01/29 04:04:33;;;;;;;31.40;14.27;;;;;;;-1.98;79.06;99270.02;121766;1141;104342;-78
2021/01/29 04:07:26;;;;;;;29.97;14.67;;;;;;;-1.97;78.96;99274.39;121714;1141;104338;-78
2021/01/29 04:10:14;;;;;;;29.40;14.20;;;;;;;-1.94;79.67;99266.88;121744;1141;104345;-78
2021/01/29 04:13:08;;;;;;;31.60;14.40;;;;;;;-1.93;78.77;99273.81;121706;1140;104433;-78
2021/01/29 04:15:46;;;;;;;33.47;16.10;;;;;;;-1.91;79.98;99274.79;121713;1140;105048;-78
2021/01/29 04:18:21;;;;;;;32.40;15.93;;;;;;;-1.99;79.19;99282.00;121682;1141;104509;-78
2021/01/29 04:20:56;;;;;;;32.57;16.33;;;;;;;-2.15;78.93;99276.66;121710;1140;104392;-79
2021/01/29 04:23:33;;;;;;;32.57;16.23;;;;;;;-2.29;78.60;99278.31;121710;1141;104339;-77
2021/01/29 04:26:07;;;;;;;35.30;16.47;;;;;;;-2.35;78.51;99280.47;121722;1140;104337;-79
2021/01/29 04:28:46;;;;;;;31.00;15.70;;;;;;;-2.35;78.45;99283.04;121430;1141;104440;-78
2021/01/29 04:31:22;;;;;;;35.57;16.17;;;;;;;-2.31;79.23;99279.86;121687;1141;103153;-78
2021/01/29 04:34:03;;;;;;;35.83;17.03;;;;;;;-2.28;78.95;99280.06;121631;1140;104348;-78
2021/01/29 04:36:38;;;;;;;30.47;15.63;;;;;;;-2.26;80.02;99273.38;121756;1141;104470;-77
2021/01/29 04:39:12;;;;;;;29.23;14.53;;;;;;;-2.23;79.71;99276.15;121697;1140;104348;-80
2021/01/29 04:41:53;;;;;;;29.87;15.23;;;;;;;-2.21;78.96;99271.99;121361;1141;104369;-77
2021/01/29 04:44:47;;;;;;;30.03;14.70;;;;;;;-2.18;78.81;99269.63;121700;1141;104519;-78
2021/01/29 04:47:22;;;;;;;25.77;13.48;;;;;;;-2.23;79.21;99271.01;121756;1141;104436;-80
2021/01/29 04:50:11;;;;;;;29.27;15.50;;;;;;;-2.29;78.58;99269.69;121741;1141;104352;-78
2021/01/29 04:52:57;;;;;;;31.13;14.80;;;;;;;-2.32;79.61;99274.63;121688;1141;104831;-78
2021/01/29 04:55:46;;;;;;;28.43;14.30;;;;;;;-2.25;79.57;99274.25;121718;1141;104782;-78
2021/01/29 04:58:17;;;;;;;31.20;14.60;;;;;;;-2.23;78.95;99276.15;121424;1141;104402;-79
2021/01/29 05:01:34;;;;;;;32.50;15.50;;;;;;;-2.23;79.95;99273.58;121675;1139;104713;-78
2021/01/29 05:04:47;;;;;;;28.60;13.13;;;;;;;-2.16;78.58;99272.30;121643;1140;104347;-79
2021/01/29 05:07:50;;;;;;;29.03;13.20;;;;;;;-2.14;78.87;99264.69;121524;1141;104347;-79
2021/01/29 05:11:02;;;;;;;27.43;13.27;;;;;;;-2.17;79.04;99273.07;121642;1141;104345;-80
2021/01/29 05:13:48;;;;;;;30.47;13.07;;;;;;;-2.22;78.66;99270.20;121554;1141;104343;-79
2021/01/29 05:16:44;;;;;;;29.83;14.77;;;;;;;-2.26;79.37;99265.66;121250;1141;104402;-78
2021/01/29 05:19:37;;;;;;;26.57;12.23;;;;;;;-2.26;79.43;99269.89;121376;1141;104399;-78
2021/01/29 05:22:28;;;;;;;28.50;12.67;;;;;;;-2.32;79.20;99272.97;121432;1140;104396;-79
2021/01/29 05:25:21;;;;;;;28.33;13.97;;;;;;;-2.35;78.78;99262.48;121682;1141;104404;-79
2021/01/29 05:28:20;;;;;;;30.00;13.07;;;;;;;-2.38;78.39;99265.73;121620;1141;104384;-78
2021/01/29 05:31:07;;;;;;;27.70;13.17;;;;;;;-2.41;78.19;99265.52;121326;1141;104515;-79
2021/01/29 05:33:54;;;;;;;27.77;12.80;;;;;;;-2.42;78.93;99267.98;121381;1141;104403;-80
2021/01/29 05:36:56;;;;;;;29.00;14.20;;;;;;;-2.45;78.99;99265.21;121345;1141;104391;-77
2021/01/29 05:39:38;;;;;;;27.30;13.27;;;;;;;-2.43;78.44;99272.25;121562;1140;104474;-76
2021/01/29 05:42:28;;;;;;;30.27;13.27;;;;;;;-2.38;79.28;99277.69;121530;1141;104789;-77
2021/01/29 05:45:17;;;;;;;27.60;13.23;;;;;;;-2.41;79.23;99280.05;121494;1141;104358;-77
2021/01/29 05:48:12;;;;;;;29.70;12.73;;;;;;;-2.38;78.43;99280.27;121589;1141;104338;-77
2021/01/29 05:51:04;;;;;;;27.85;13.05;;;;;;;-2.45;78.25;99283.19;121486;1140;104524;-79
2021/01/29 05:53:57;;;;;;;27.50;13.50;;;;;;;-2.49;79.09;99281.19;121697;1140;104341;-78
2021/01/29 05:56:35;;;;;;;29.13;14.43;;;;;;;-2.49;79.01;99276.05;121597;1141;104359;-79
2021/01/29 05:59:31;;;;;;;27.43;12.77;;;;;;;-2.45;78.66;99272.92;122088;1139;104345;-78
2021/01/29 06:02:25;;;;;;;30.83;14.33;;;;;;;-2.41;78.70;99275.80;121558;1140;104496;-80
2021/01/29 06:05:06;;;;;;;28.17;13.37;;;;;;;-2.37;79.38;99282.94;121259;1141;104372;-79
2021/01/29 06:07:52;;;;;;;30.17;14.23;;;;;;;-2.30;78.13;99273.95;121140;1141;104515;-79
2021/01/29 06:10:41;;;;;;;30.13;15.10;;;;;;;-2.20;78.21;99270.30;121342;1139;104390;-80
2021/01/29 06:13:38;;;;;;;28.77;14.57;;;;;;;-2.12;78.41;99276.86;121250;1140;104407;-79
2021/01/29 06:16:46;;;;;;;30.60;14.20;;;;;;;-2.03;79.17;99272.30;121040;1141;104470;-80
2021/01/29 06:19:42;;;;;;;29.83;13.83;;;;;;;-1.92;79.48;99274.69;121153;1141;104380;-80
2021/01/29 06:22:31;;;;;;;31.03;14.03;;;;;;;-1.85;78.79;99274.31;121220;1141;104355;-80
2021/01/29 06:25:16;;;;;;;25.80;12.73;;;;;;;-1.76;77.99;99285.20;120807;1141;104444;-81
2021/01/29 06:28:13;;;;;;;28.83;13.77;;;;;;;-1.72;78.81;99279.44;122743;1141;103021;-80
2021/01/29 06:31:01;;;;;;;27.30;13.20;;;;;;;-1.61;78.36;99268.96;123116;1139;101966;-83
2021/01/29 06:33:57;;;;;;;31.83;14.67;;;;;;;-1.58;77.95;99270.03;122428;1140;104702;-81
2021/01/29 06:36:39;;;;;;;28.77;14.43;;;;;;;-1.56;78.37;99263.30;121419;1141;104338;-78
2021/01/29 06:39:30;;;;;;;29.13;14.37;;;;;;;-1.52;78.03;99264.40;121273;1140;104503;-81
2021/01/29 06:42:30;;;;;;;29.13;13.17;;;;;;;-1.51;77.70;99261.02;121241;1141;104359;-79
2021/01/29 06:45:27;;;;;;;30.37;15.10;;;;;;;-1.54;77.88;99261.73;121551;1140;104383;-78
2021/01/29 06:48:14;;;;;;;30.53;13.90;;;;;;;-1.42;78.79;99261.59;121004;1141;104364;-82
2021/01/29 06:51:07;;;;;;;31.13;15.20;;;;;;;-1.33;78.29;99266.45;121304;1141;104362;-82
2021/01/29 06:54:06;;;;;;;30.67;14.27;;;;;;;-1.14;78.85;99263.33;121277;1141;104364;-80
2021/01/29 06:57:03;;;;;;;33.87;14.97;;;;;;;-0.91;78.71;99255.33;121098;1141;104459;-81
2021/01/29 06:59:59;;;;;;;28.23;14.20;;;;;;;-0.70;78.33;99267.75;121053;1141;104350;-80
2021/01/29 07:02:52;;;;;;;30.47;14.90;;;;;;;-0.55;78.81;99267.77;120974;1141;104450;-79
2021/01/29 07:05:43;;;;;;;33.13;15.40;;;;;;;-0.42;78.72;99264.22;121266;1141;104358;-79
2021/01/29 07:08:32;;;;;;;31.87;15.07;;;;;;;-0.35;78.43;99270.66;121317;1141;103628;-82
2021/01/29 07:11:27;;;;;;;31.93;15.17;;;;;;;-0.29;78.11;99269.31;121258;1141;104420;-82
2021/01/29 07:14:13;;;;;;;29.37;14.60;;;;;;;-0.32;77.34;99268.26;121151;1145;104385;-80
2021/01/29 07:17:03;;;;;;;32.27;15.40;;;;;;;-0.30;77.75;99269.23;121395;1141;104384;-79
2021/01/29 07:19:53;;;;;;;31.80;14.80;;;;;;;-0.26;78.04;99272.08;121410;1140;104385;-80
2021/01/29 07:22:49;;;;;;;26.93;13.37;;;;;;;-0.24;78.01;99261.85;121097;1141;104435;-79
2021/01/29 07:25:26;;;;;;;27.90;14.23;;;;;;;-0.17;77.13;99258.84;121407;1140;104839;-78
2021/01/29 07:28:13;;;;;;;34.70;15.23;;;;;;;-0.09;77.92;99256.71;121323;1141;104384;-79
2021/01/29 07:31:07;;;;;;;32.13;15.47;;;;;;;0.05;77.77;99257.48;121358;1140;104364;-79
2021/01/29 07:33:46;;;;;;;30.27;14.68;;;;;;;0.14;78.16;99251.17;121408;1141;104332;-80
2021/01/29 07:36:41;;;;;;;32.17;16.10;;;;;;;0.29;77.90;99251.13;121514;1140;104367;-75
2021/01/29 07:39:39;;;;;;;29.57;14.17;;;;;;;0.45;77.51;99245.16;121319;1141;104367;-79
2021/01/29 07:42:23;;;;;;;27.73;13.00;;;;;;;0.51;77.46;99236.84;121363;1141;104364;-82
2021/01/29 07:45:10;;;;;;;24.03;11.90;;;;;;;0.52;77.04;99239.52;121340;1140;104374;-77
2021/01/29 07:48:03;;;;;;;25.77;12.63;;;;;;;0.57;77.29;99244.05;121436;1141;104470;-79
2021/01/29 07:50:43;;;;;;;24.40;12.07;;;;;;;0.64;77.17;99231.57;121536;1141;104355;-81
2021/01/29 07:53:27;;;;;;;26.20;12.57;;;;;;;0.62;77.11;99234.86;121464;1140;104383;-82
2021/01/29 07:56:09;;;;;;;;;;;;;;;0.51;77.07;99235.18;121919;1141;104366;-84
2021/01/29 07:58:48;;;;;;;23.33;11.63;;;;;;;0.40;77.07;99230.22;121289;1141;104349;-81
2021/01/29 08:01:44;;;;;;;23.60;11.23;;;;;;;0.29;76.71;99221.88;121041;1140;104383;-81
2021/01/29 08:04:22;;;;;;;28.33;12.97;;;;;;;0.24;76.95;99228.48;122801;1139;102960;-82
2021/01/29 08:06:59;;;;;;;25.57;12.93;;;;;;;0.22;77.25;99230.97;123293;1139;102035;-82
2021/01/29 08:09:35;;;;;;;26.43;12.67;;;;;;;0.28;76.94;99230.41;123351;1139;102104;-81
2021/01/29 08:12:11;;;;;;;25.40;10.87;;;;;;;0.38;77.50;99216.34;121407;1142;104359;-82
2021/01/29 08:15:02;;;;;;;26.03;12.27;;;;;;;0.54;76.77;99213.79;121494;1143;104381;-81
2021/01/29 08:17:50;;;;;;;28.90;12.57;;;;;;;0.68;76.92;99210.25;121366;1142;104612;-80
2021/01/29 08:20:31;;;;;;;27.33;12.60;;;;;;;0.83;77.19;99212.79;121022;1142;104553;-80
2021/01/29 08:23:20;;;;;;;25.90;12.23;;;;;;;0.98;77.17;99212.73;120855;1142;104359;-79
2021/01/29 08:26:16;;;;;;;27.90;12.17;;;;;;;1.06;76.75;99215.69;120934;1144;104380;-81
2021/01/29 08:29:08;;;;;;;25.60;12.27;;;;;;;1.07;76.75;99223.52;120967;1144;104553;-82
2021/01/29 08:32:12;;;;;;;25.50;12.50;;;;;;;1.14;77.15;99224.75;121084;1144;104370;-81
2021/01/29 08:35:26;;;;;;;23.23;11.83;;;;;;;1.22;76.93;99219.98;121092;1143;104391;-81
2021/01/29 08:38:08;;;;;;;24.57;11.17;;;;;;;1.33;77.08;99207.63;120871;1144;104556;-80
2021/01/29 08:40:52;;;;;;;27.87;12.77;;;;;;;1.40;76.77;99212.28;121028;1142;104508;-80
2021/01/29 08:43:51;;;;;;;26.00;12.28;;;;;;;1.46;76.93;99212.59;121097;1141;104521;-83
2021/01/29 08:46:45;;;;;;;30.13;14.37;;;;;;;1.49;76.36;99204.12;121077;1144;104585;-80
2021/01/29 08:49:32;;;;;;;25.37;11.23;;;;;;;1.51;77.07;99205.07;121051;1143;104697;-83
2021/01/29 08:52:13;;;;;;;28.43;13.17;;;;;;;1.49;76.86;99206.70;121008;1144;104370;-81
2021/01/29 08:54:54;;;;;;;27.43;13.23;;;;;;;1.52;76.95;99204.27;121141;1143;104542;-80
2021/01/29 08:57:31;;;;;;;26.40;11.97;;;;;;;1.53;76.66;99195.72;121140;1142;104411;-83
2021/01/29 09:00:02;;;;;;;25.00;12.63;;;;;;;1.52;76.21;99192.22;121172;1144;104840;-80
2021/01/29 09:02:44;;;;;;;27.17;13.30;;;;;;;1.51;76.58;99187.88;121221;1142;104480;-82
2021/01/29 09:05:21;;;;;;;26.23;13.43;;;;;;;1.58;76.67;99184.78;121624;1143;104349;-80
2021/01/29 09:08:02;;;;;;;27.90;12.47;;;;;;;1.66;76.74;99187.75;121116;1143;104413;-81
2021/01/29 09:10:59;;;;;;;29.93;13.33;;;;;;;1.73;76.59;99188.93;121030;1143;104366;-79
2021/01/29 09:13:32;;;;;;;24.87;12.57;;;;;;;1.86;76.45;99187.86;120919;1144;104548;-82
2021/01/29 09:16:10;;;;;;;28.93;13.43;;;;;;;1.91;76.75;99181.20;120914;1143;104537;-80
2021/01/29 09:18:49;;;;;;;26.17;12.00;;;;;;;2.00;76.69;99176.48;122088;1141;104373;-80
2021/01/29 09:21:31;;;;;;;24.03;11.60;;;;;;;1.93;76.50;99170.13;121448;1140;104444;-82
2021/01/29 09:24:10;;;;;;;26.60;13.33;;;;;;;1.94;76.39;99177.05;121571;1141;103211;-81
2021/01/29 09:26:51;;;;;;;26.63;11.97;;;;;;;1.96;76.30;99161.61;120970;1141;104355;-81
2021/01/29 09:29:26;;;;;;;27.27;13.77;;;;;;;1.96;76.56;99162.52;123155;1139;102109;-79
2021/01/29 09:32:01;;;;;;;27.43;13.37;;;;;;;1.99;76.49;99164.34;121944;1141;104374;-79
2021/01/29 09:34:39;;;;;;;27.57;12.50;;;;;;;2.04;75.74;99161.98;121461;1140;104577;-81
2021/01/29 09:37:16;;;;;;;27.63;13.23;;;;;;;2.07;76.05;99163.03;121515;1141;104358;-81
2021/01/29 09:40:03;;;;;;;26.63;12.70;;;;;;;2.11;75.73;99157.17;121622;1140;104335;-80
2021/01/29 09:42:55;;;;;;;30.60;13.57;;;;;;;2.20;75.84;99155.83;121514;1140;104481;-83
2021/01/29 09:45:28;;;;;;;23.17;11.73;;;;;;;2.24;75.65;99152.58;121244;1141;104465;-85
2021/01/29 09:48:01;;;;;;;24.17;11.23;;;;;;;2.20;75.76;99141.20;120881;1141;104493;-82
2021/01/29 09:50:38;;;;;;;27.13;12.40;;;;;;;2.16;75.23;99142.73;121087;1141;104378;-85
2021/01/29 09:53:21;;;;;;;25.33;11.77;;;;;;;2.23;75.13;99137.85;121101;1141;104380;-83
2021/01/29 09:56:00;;;;;;;26.50;10.83;;;;;;;2.24;75.59;99132.75;121316;1141;104394;-81
2021/01/29 09:58:41;;;;;;;25.30;12.33;;;;;;;2.17;74.74;99125.53;121190;1141;104364;-82
2021/01/29 10:01:19;;;;;;;28.07;12.97;;;;;;;2.15;75.53;99129.73;121284;1141;104455;-82
2021/01/29 10:03:59;;;;;;;28.17;13.67;;;;;;;2.14;75.42;99123.67;122646;1146;102131;-82
2021/01/29 10:06:36;;;;;;;28.17;13.97;;;;;;;2.21;75.25;99129.14;122012;1141;103171;-81
2021/01/29 10:09:22;;;;;;;27.50;13.80;;;;;;;2.23;75.49;99120.64;121278;1140;104482;-81
2021/01/29 10:12:04;;;;;;;29.20;14.33;;;;;;;2.33;75.47;99111.59;120985;1141;104384;-83
2021/01/29 10:14:43;;;;;;;25.73;12.07;;;;;;;2.39;75.17;99104.11;121617;1140;104374;-81
2021/01/29 10:17:23;;;;;;;27.60;12.30;;;;;;;2.43;75.51;99106.03;121002;1141;104584;-81
2021/01/29 10:19:58;;;;;;;27.10;12.77;;;;;;;2.47;75.07;99105.33;123337;1139;103023;-79
2021/01/29 10:22:56;;;;;;;30.30;14.07;;;;;;;2.50;74.86;99102.88;123280;1140;102088;-81
2021/01/29 10:25:34;;;;;;;25.70;12.17;;;;;;;2.61;75.20;99100.78;121501;1141;104399;-81
2021/01/29 10:28:13;;;;;;;27.40;12.87;;;;;;;2.61;74.28;99097.31;121188;1141;104546;-82
2021/01/29 10:30:51;;;;;;;25.83;13.20;;;;;;;2.58;75.01;99092.88;121546;1141;104351;-82
2021/01/29 10:33:25;;;;;;;23.47;12.13;;;;;;;2.57;74.33;99093.71;121586;1140;104335;-80
2021/01/29 10:36:01;;;;;;;23.83;11.30;;;;;;;2.60;74.61;99093.85;120943;1141;104540;-79
2021/01/29 10:38:40;;;;;;;25.47;12.70;;;;;;;2.57;74.01;99090.22;121382;1141;104478;-80
2021/01/29 10:41:17;;;;;;;23.10;10.87;;;;;;;2.57;74.73;99097.98;120999;1141;104406;-80
2021/01/29 10:43:52;;;;;;;26.10;13.47;;;;;;;2.61;73.71;99092.13;121015;1141;104510;-81
2021/01/29 10:46:46;;;;;;;26.70;13.30;;;;;;;2.64;74.94;99097.45;121301;1140;104369;-80
2021/01/29 10:49:22;;;;;;;26.40;13.20;;;;;;;2.68;74.17;99094.16;121328;1140;104349;-81
2021/01/29 10:52:02;;;;;;;27.47;13.13;;;;;;;2.68;74.47;99088.98;121251;1140;104386;-79
2021/01/29 10:54:38;;;;;;;24.47;11.77;;;;;;;2.65;74.17;99084.57;121342;1140;104364;-79
2021/01/29 10:57:22;;;;;;;28.93;13.00;;;;;;;2.68;74.67;99082.12;121329;1141;104351;-80
2021/01/29 10:59:57;;;;;;;23.27;12.13;;;;;;;2.78;74.17;99062.67;121172;1141;104369;-80
2021/01/29 11:02:36;;;;;;;27.90;13.23;;;;;;;2.86;74.41;99073.38;121159;1140;104385;-80
2021/01/29 11:05:11;;;;;;;29.00;14.00;;;;;;;2.94;74.67;99068.52;121229;1140;104474;-80
2021/01/29 11:07:49;;;;;;;26.57;12.73;;;;;;;2.99;74.41;99069.59;121076;1141;104452;-79
2021/01/29 11:10:32;;;;;;;28.13;13.50;;;;;;;3.01;74.15;99063.67;121064;1139;104353;-79
2021/01/29 11:13:06;;;;;;;28.73;14.43;;;;;;;3.03;74.08;99072.38;122679;1140;103038;-80
2021/01/29 11:15:41;;;;;;;27.33;13.53;;;;;;;3.03;74.06;99068.92;123209;1139;102091;-78
2021/01/29 11:18:19;;;;;;;26.90;12.73;;;;;;;3.01;74.18;99062.80;123160;1139;102080;-78
2021/01/29 11:20:50;;;;;;;24.83;12.73;;;;;;;2.98;73.58;99060.95;122686;1140;102662;-77
2021/01/29 11:23:31;;;;;;;25.97;13.77;;;;;;;2.94;73.86;99059.03;123323;1140;102228;-78
2021/01/29 11:26:13;;;;;;;27.37;14.07;;;;;;;2.92;74.10;99055.50;123290;1140;103099;-77
2021/01/29 11:28:54;;;;;;;25.93;12.90;;;;;;;2.95;73.60;99049.58;122532;1141;101950;-78
2021/01/29 11:31:39;;;;;;;27.70;13.67;;;;;;;2.97;74.23;99053.98;122926;1139;103823;-78
2021/01/29 11:34:19;;;;;;;28.70;13.53;;;;;;;2.99;73.66;99048.86;121369;1140;104365;-77
2021/01/29 11:36:59;;;;;;;26.87;13.43;;;;;;;2.96;73.32;99040.96;121273;1141;104371;-78
2021/01/29 11:39:35;;;;;;;26.27;12.53;;;;;;;2.91;74.14;99037.30;121212;1141;104374;-79
2021/01/29 11:42:13;;;;;;;25.43;12.60;;;;;;;2.89;73.77;99045.00;121345;1141;104422;-77
2021/01/29 11:44:56;;;;;;;26.63;12.53;;;;;;;2.85;72.96;99027.55;122746;1139;102003;-78
2021/01/29 11:47:35;;;;;;;26.30;13.60;;;;;;;2.84;74.21;99034.44;121309;1141;104857;-79
2021/01/29 11:50:21;;;;;;;28.17;14.10;;;;;;;2.90;73.46;99027.74;121260;1141;104487;-80
2021/01/29 11:53:05;;;;;;;28.07;13.27;;;;;;;3.06;73.85;99007.72;121642;1141;104620;-79
2021/01/29 11:55:44;;;;;;;26.97;12.83;;;;;;;3.25;73.70;99011.08;121141;1141;104364;-79
2021/01/29 11:58:23;;;;;;;25.07;12.53;;;;;;;3.39;73.04;99003.86;121255;1141;104498;-78
2021/01/29 12:01:00;;;;;;;27.50;12.60;;;;;;;3.50;72.89;98999.11;121374;1141;103561;-79
2021/01/29 12:03:41;;;;;;;27.10;12.50;;;;;;;3.57;73.57;99001.13;121323;1141;104415;-78
2021/01/29 12:06:18;;;;;;;23.87;12.07;;;;;;;3.72;73.13;98999.10;121465;1141;104486;-80
2021/01/29 12:09:06;;;;;;;25.80;12.33;;;;;;;3.87;73.48;99001.42;121296;1141;104423;-79
2021/01/29 12:11:45;;;;;;;24.93;11.90;;;;;;;3.95;73.39;98992.20;122560;1140;104338;-79
2021/01/29 12:14:24;;;;;;;24.43;12.10;;;;;;;3.95;73.38;98996.52;121358;1141;104335;-77
2021/01/29 12:17:08;;;;;;;27.27;12.50;;;;;;;3.91;73.00;98992.94;121535;1141;104345;-78
2021/01/29 12:19:44;;;;;;;27.27;13.63;;;;;;;3.80;73.04;98996.81;121294;1141;104360;-79
2021/01/29 12:22:24;;;;;;;25.07;13.27;;;;;;;3.69;72.53;99000.70;121209;1141;104426;-80